Tiempo atmosférico en la estación meteorológica de Pontons, Barcelona (630 m.)



Fecha
DESCASC
Temp. máxima en grados centígrados (hora)
DESCASC
Temp. mínima en grados centígrados (hora)
DESCASC
Temp. media en grados centígrados
DESCASC
Racha de viento máxima en m/sg (hora)
DESCASC
Velocidad máxima media en intervalos de 10 minutos(hora)
DESCASC
Precipitaciones diarias en mm
DESCASC
Precipitaciones de 00:00 a 06:00 en mm
DESCASC
Precipitaciones de 06:00 a 12:00 en mm
DESCASC
Precipitaciones de 12:00 a 18:00 en mm
DESCASC
Precipitaciones de 18:00 a 24:00 en mm
DESCASC
23-06-2019 29.2 (15:40) 14.9 (02:20) 22.1 11.11 (13:10) 7.22 (14:20) 0 0 0 0 0
22-06-2019 26.7 (15:30) 11.8 (06:30) 19.3 10.83 (17:00) 7.22 (18:10) 0 0 0 0 0
21-06-2019 23.2 (19:50) 13.2 (05:40) 18.2 8.89 (11:00) 4.17 (12:40) 0 0 0 0 0
20-06-2019 26.6 (13:50) 14.4 (00:00) 20.5 9.72 (16:50) 5.83 (11:40) 0 0 0 0 0
19-06-2019 -- (--) -- (--) -- -- (--) -- (--) -- -- -- -- 0
18-06-2019 -- (--) -- (--) -- -- (--) -- (--) -- 0 0 0 --
17-06-2019 27.4 (14:20) 11.3 (00:00) 19.3 9.44 (18:40) 6.39 (19:20) 0 0 0 0 0
16-06-2019 24.4 (16:00) 9.8 (00:00) 17.1 11.39 (16:50) 7.22 (16:40) 0 0 0 0 0
15-06-2019 25.8 (17:50) 11.4 (00:00) 18.6 11.11 (10:00) 6.94 (10:10) 0 0 0 0 0
14-06-2019 22.7 (14:10) 13.3 (00:00) 18 11.94 (12:10) 7.78 (15:10) 0 0 0 0 0
13-06-2019 22.2 (14:40) 5.4 (00:00) 13.8 7.78 (18:30) 5 (20:00) 0 0 0 0 0
12-06-2019 19.3 (16:30) 5.8 (00:00) 12.5 8.33 (13:00) 5.28 (14:00) 0.2 0 0.2 0 0
11-06-2019 16.9 (00:00) 8 (00:00) 12.4 10.28 (13:50) 5.83 (13:50) 14.4 0.2 5.4 7.4 1.4
10-06-2019 24.6 (17:30) 11.9 (00:00) 18.3 9.72 (17:10) 6.11 (18:10) 0 0 0 0 0
09-06-2019 23.3 (15:50) 13.1 (00:00) 18.2 8.89 (18:00) 5.28 (18:10) 0 0 0 0 0
08-06-2019 23.3 (14:00) 8.2 (00:00) 15.7 10.28 (14:30) 5.56 (16:10) 0 0 0 0 0
07-06-2019 23.1 (16:20) 11.5 (00:00) 17.3 12.78 (12:30) 8.61 (12:30) 0 0 0 0 0
06-06-2019 19.8 (14:50) 5.5 (00:00) 12.6 8.89 (18:30) 5 (14:30) 0 0 0 0 0
05-06-2019 19.9 (12:10) 10 (00:00) 14.9 17.78 (20:10) 11.94 (19:50) 0.4 0 0 0.4 0
04-06-2019 24.8 (15:20) 10.8 (00:00) 17.8 9.72 (14:20) 5 (12:50) 0 0 0 0 0
03-06-2019 24.6 (14:40) 13.9 (00:00) 19.3 11.67 (15:30) 6.67 (14:10) 0 0 0 0 0
02-06-2019 24.2 (15:40) 14.2 (00:00) 19.2 10.28 (14:10) 6.94 (15:50) 0 0 0 0 0
01-06-2019 25.1 (15:00) 12.5 (00:00) 18.8 8.61 (14:30) 5.83 (20:00) 0 0 0 0 0
31-05-2019 22.4 (15:50) 8.3 (00:00) 15.3 10.56 (15:00) 6.39 (16:00) 0 0 0 0 0
30-05-2019 22.9 (17:10) 6.6 (00:00) 14.7 7.5 (18:50) 4.44 (18:50) 0 0 0 0 0
29-05-2019 21.7 (16:10) 6.8 (00:00) 14.3 9.72 (13:40) 6.67 (11:50) 0 0 0 0 0
28-05-2019 19.9 (14:40) 9.8 (00:00) 14.8 8.89 (15:40) 5.28 (15:40) 0 0 0 0 0

Gráficas

Temp. máximas Temp. mínimas Temp. medias Precipitaciones Rachas de viento máximas Velocidades máximas media en intervalos de 10 minutos

Datos horarios

Fecha y hora oficial Temperatura (ºC) Velocidad del viento (km/h) Dirección del viento Racha (km/h) Dirección de racha Precipitación (mm) Presión (hPa) Tendencia (hPa) Humedad (%)
2019-06-26 23:00:00 19.8 6 Noroeste 8 Noroeste 0 -- -- 44
2019-06-26 22:00:00 22.7 0 Calma 13 Este 0 -- -- 37
2019-06-26 21:00:00 26.4 9 Este 19 Sudeste 0 -- -- 29
2019-06-26 20:00:00 28.8 12 Sudeste 29 Sudeste 0 -- -- 26
2019-06-26 19:00:00 30.1 17 Sudeste 35 Sudeste 0 -- -- 23
2019-06-26 18:00:00 30.8 19 Sudeste 36 Sudeste 0 -- -- 22
2019-06-26 17:00:00 30.9 25 Sudeste 42 Sudeste 0 -- -- 21
2019-06-26 16:00:00 30.5 28 Sudeste 43 Sudeste 0 -- -- 23
2019-06-26 15:00:00 30.2 27 Sudeste 44 Sudeste 0 -- -- 24
2019-06-26 14:00:00 30.3 25 Sudeste 45 Sudeste 0 -- -- 24
2019-06-26 13:00:00 29.9 28 Sudeste 45 Sudeste 0 -- -- 25
2019-06-26 12:00:00 29.4 24 Sudeste 43 Sudeste 0 -- -- 27
2019-06-26 11:00:00 28.2 18 Este 41 Este 0 -- -- 31
2019-06-26 10:00:00 26.7 22 Este 43 Este 0 -- -- 32
2019-06-26 09:00:00 25.7 22 Este 39 Este 0 -- -- 30
2019-06-26 08:00:00 23.8 15 Este 25 Este 0 -- -- 35
2019-06-26 07:00:00 20.7 8 Este 15 Este 0 -- -- 43
2019-06-26 06:00:00 20.3 9 Este 20 Sudeste 0 -- -- 46
2019-06-26 05:00:00 19.1 4 Este 15 Este 0 -- -- 54
2019-06-26 04:00:00 19.1 4 Este 12 Este 0 -- -- 56
2019-06-26 03:00:00 19.4 6 Este 16 Este 0 -- -- 57
2019-06-26 02:00:00 19.4 7 Este 14 Este 0 -- -- 62
2019-06-26 01:00:00 19.7 8 Este 25 Este 0 -- -- 68
2019-06-26 00:00:00 20 14 Este 23 Este 0 -- -- 73
2019-06-25 23:00:00 20.1 13 Este 22 Este 0 -- -- 75
2019-06-25 22:00:00 20.5 14 Este 24 Este 0 -- -- 72
2019-06-25 21:00:00 22.4 15 Este 34 Este 0 -- -- 61
2019-06-25 20:00:00 24.5 17 Este 32 Este 0 -- -- 53
2019-06-25 19:00:00 26.4 19 Sudeste 33 Sudeste 0 -- -- 49
2019-06-25 18:00:00 27.8 17 Este 36 Este 0 -- -- 42
2019-06-25 17:00:00 29 19 Este 33 Este 0 -- -- 37
2019-06-25 16:00:00 29.4 17 Sudeste 34 Sudeste 0 -- -- 34
2019-06-25 15:00:00 28.2 17 Sudeste 41 Este 0 -- -- 36
2019-06-25 14:00:00 26.7 21 Este 41 Sudeste 0 -- -- 43
2019-06-25 13:00:00 24.8 28 Este 41 Este 0 -- -- 50
2019-06-25 12:00:00 24 26 Este 42 Este 0 -- -- 52
2019-06-25 11:00:00 22.8 27 Este 43 Este 0 -- -- 56
2019-06-25 10:00:00 20 20 Este 33 Este 0 -- -- 72
2019-06-25 09:00:00 19.6 16 Este 29 Este 0 -- -- 73
2019-06-25 08:00:00 18.4 14 Este 25 Este 0 -- -- 75
2019-06-25 07:00:00 15.8 3 Oeste 5 Noroeste 0 -- -- 82
2019-06-25 06:00:00 16.2 4 Sudeste 17 Sudeste 0 -- -- 81
2019-06-25 05:00:00 16.9 6 Sudeste 25 Nordeste 0 -- -- 77
2019-06-25 04:00:00 16.6 5 Sudeste 21 Este 0 -- -- 78
2019-06-25 03:00:00 16.6 3 Sudeste 12 Este 0 -- -- 81
2019-06-25 02:00:00 17.1 5 Este 21 Este 0 -- -- 77
2019-06-25 01:00:00 17.7 8 Este 23 Este 0 -- -- 71
2019-06-25 00:00:00 18.6 13 Este 26 Este 0 -- -- 63
2019-06-24 23:00:00 19.5 14 Este 24 Este 0 -- -- 54
2019-06-24 22:00:00 20.5 13 Este 26 Este 0 -- -- 35
2019-06-24 21:00:00 22.7 16 Este 29 Este 0 -- -- 31
2019-06-24 20:00:00 24.9 13 Sudeste 29 Este 0 -- -- 32
2019-06-24 19:00:00 26.1 17 Sudeste 46 Este 0 -- -- 28
2019-06-24 18:00:00 28.1 21 Este 43 Este 0 -- -- 16
2019-06-24 17:00:00 28.5 17 Sudeste 44 Este 0 -- -- 14
2019-06-24 16:00:00 27.8 25 Este 46 Este 0 -- -- 22
2019-06-24 15:00:00 28 20 Este 44 Este 0 -- -- 24
2019-06-24 14:00:00 27.4 22 Sudeste 39 Este 0 -- -- 27
2019-06-24 13:00:00 26.5 18 Este 38 Este 0 -- -- 30
2019-06-24 12:00:00 26.6 14 Sudeste 33 Sudeste 0 -- -- 32
2019-06-24 11:00:00 26 14 Sudeste 24 Sudeste 0 -- -- 29
2019-06-24 10:00:00 25.9 12 Este 25 Este 0 -- -- 29
2019-06-24 09:00:00 23.2 10 Este 16 Este 0 -- -- 40
2019-06-24 08:00:00 18.1 4 Este 10 Este 0 -- -- 58
2019-06-24 07:00:00 14.3 5 Noroeste 7 Noroeste 0 -- -- 66
2019-06-24 06:00:00 12.9 4 Noroeste 9 Noroeste 0 -- -- 70
2019-06-24 05:00:00 13.2 8 Noroeste 10 Noroeste 0 -- -- 71
2019-06-24 04:00:00 13.6 5 Noroeste 9 Noroeste 0 -- -- 67
2019-06-24 03:00:00 13.8 5 Noroeste 7 Noroeste 0 -- -- 64
2019-06-24 02:00:00 14.4 2 Noroeste 9 Noroeste 0 -- -- 62
2019-06-24 01:00:00 14.6 6 Noroeste 9 Noroeste 0 -- -- 58
2019-06-24 00:00:00 17.2 8 Noroeste 11 Noroeste 0 -- -- 45
2019-06-23 23:00:00 17.3 8 Noroeste 10 Oeste 0 -- -- 48
2019-06-23 22:00:00 19.3 7 Noroeste 12 Noroeste 0 -- -- 48
2019-06-23 21:00:00 22.9 4 Norte 18 Oeste 0 -- -- 41
2019-06-23 20:00:00 26.1 12 Sudoeste 24 Oeste 0 -- -- 30
2019-06-23 19:00:00 27.6 13 Sudoeste 30 Sudoeste 0 -- -- 28
2019-06-23 18:00:00 27.9 17 Sudoeste 29 Sudoeste 0 -- -- 27
2019-06-23 17:00:00 28.6 14 Sudoeste 31 Sudoeste 0 -- -- 25
2019-06-23 16:00:00 29.1 16 Sudoeste 35 Oeste 0 -- -- 31
2019-06-23 15:00:00 28.8 22 Oeste 39 Oeste 0 -- -- 22
2019-06-23 14:00:00 28.3 24 Oeste 40 Sudoeste 0 -- -- 20
2019-06-23 13:00:00 27.1 17 Sudoeste 34 Sudoeste 0 -- -- 27
2019-06-23 12:00:00 25.8 18 Sudoeste 35 Sudoeste 0 -- -- 32
2019-06-23 11:00:00 24.1 19 Sudoeste 31 Sudoeste 0 -- -- 37
2019-06-23 10:00:00 22.7 12 Sudoeste 25 Sudoeste 0 -- -- 46
2019-06-23 09:00:00 21.5 6 Oeste 20 Oeste 0 -- -- 54
2019-06-23 08:00:00 19.2 11 Oeste 27 Oeste 0 -- -- 61
2019-06-23 07:00:00 16.5 11 Noroeste 15 Noroeste 0 -- -- 73
2019-06-23 06:00:00 17 8 Noroeste 15 Noroeste 0 -- -- 67
2019-06-23 05:00:00 17.8 10 Noroeste 18 Noroeste 0 -- -- 63
2019-06-23 04:00:00 17 11 Noroeste 15 Noroeste 0 -- -- 67
2019-06-23 03:00:00 15.6 5 Noroeste 8 Noroeste 0 -- -- 71
2019-06-23 02:00:00 15.9 0 Calma 13 Noroeste 0 -- -- 67
2019-06-23 01:00:00 17.8 8 Noroeste 19 Noroeste 0 -- -- 60
2019-06-23 00:00:00 18.3 9 Noroeste 22 Noroeste 0 -- -- 58
2019-06-22 23:00:00 17.3 14 Noroeste 21 Noroeste 0 -- -- 63
2019-06-22 22:00:00 18.1 10 Noroeste 24 Oeste 0 -- -- 63
2019-06-22 21:00:00 19.2 17 Noroeste 26 Oeste 0 -- -- 62
2019-06-22 20:00:00 21.6 17 Oeste 35 Sudoeste 0 -- -- 54
2019-06-22 19:00:00 22.7 21 Oeste 36 Oeste 0 -- -- 52
2019-06-22 18:00:00 23.8 24 Oeste 36 Sudoeste 0 -- -- 44
2019-06-22 17:00:00 25.7 22 Sudoeste 39 Sudoeste 0 -- -- 40
2019-06-22 16:00:00 26.3 22 Oeste 35 Oeste 0 -- -- 35
2019-06-22 15:00:00 26.2 22 Oeste 31 Oeste 0 -- -- 31
2019-06-22 14:00:00 25.7 14 Oeste 27 Oeste 0 -- -- 31
2019-06-22 13:00:00 25.2 16 Oeste 30 Noroeste 0 -- -- 31
2019-06-22 12:00:00 24.4 10 Oeste 26 Noroeste 0 -- -- 34
2019-06-22 11:00:00 23 9 Noroeste 26 Oeste 0 -- -- 36
2019-06-22 10:00:00 21.1 17 Sudoeste 23 Sudoeste 0 -- -- 38
2019-06-22 09:00:00 19.8 4 Noroeste 15 Oeste 0 -- -- 49
2019-06-22 08:00:00 16.6 8 Noroeste 13 Noroeste 0 -- -- 63
2019-06-22 07:00:00 12.9 6 Noroeste 9 Noroeste 0 -- -- 85
2019-06-22 06:00:00 12.2 8 Noroeste 9 Noroeste 0 -- -- 84
2019-06-22 05:00:00 13.1 2 Este 9 Noroeste 0 -- -- 83
2019-06-22 04:00:00 15.1 6 Noroeste 12 Noroeste 0 -- -- 77
2019-06-22 03:00:00 13.8 9 Noroeste 13 Noroeste 0 -- -- 84
2019-06-22 02:00:00 14.1 12 Noroeste 15 Noroeste 0 -- -- 83
2019-06-22 01:00:00 14.1 7 Noroeste 12 Noroeste 0 -- -- 85
2019-06-22 00:00:00 14.8 7 Noroeste 10 Noroeste 0 -- -- 82
2019-06-21 23:00:00 15.4 4 Noroeste 10 Noroeste 0 -- -- 79
2019-06-21 22:00:00 17.3 5 Noroeste 11 Oeste 0 -- -- 74
2019-06-21 21:00:00 19.3 6 Oeste 15 Sudoeste 0 -- -- 67
2019-06-21 20:00:00 22.7 8 Sudoeste 18 Oeste 0 -- -- 56
2019-06-21 19:00:00 20.8 9 Oeste 21 Oeste 0 -- -- 65
2019-06-21 18:00:00 21.5 9 Sudoeste 19 Sudoeste 0 -- -- 59
2019-06-21 17:00:00 21.1 12 Oeste 18 Oeste 0 -- -- 60
2019-06-21 16:00:00 21.3 4 Oeste 15 Oeste 0 -- -- 58
2019-06-21 15:00:00 22.2 6 Sudoeste 16 Sudoeste 0 -- -- 55
2019-06-21 14:00:00 22.7 9 Sudeste 21 Este 0 -- -- 50
2019-06-21 13:00:00 22.6 13 Este 24 Nordeste 0 -- -- 51
2019-06-21 12:00:00 21.4 6 Este 24 Norte 0 -- -- 54
2019-06-21 11:00:00 18.1 15 Noroeste 32 Noroeste 0 -- -- 71
2019-06-21 10:00:00 21 8 Nordeste 15 Este 0 -- -- 53
2019-06-21 09:00:00 20 10 Este 17 Nordeste 0 -- -- 58
2019-06-21 08:00:00 16.7 0 Calma 5 Norte 0 -- -- 79
2019-06-21 07:00:00 15 3 Nordeste 11 Este 0 -- -- 84
2019-06-21 06:00:00 13.9 5 Este 9 Este 0 -- -- 86
2019-06-21 05:00:00 14.1 0 Calma 5 Sudeste 0 -- -- 82
2019-06-21 04:00:00 14.4 0 Calma 5 Noroeste 0 -- -- 81
2019-06-21 03:00:00 14.8 5 Noroeste 6 Noroeste 0 -- -- 78
2019-06-21 02:00:00 14.8 2 Este 5 Noroeste 0 -- -- 76
2019-06-21 01:00:00 14.7 3 Noroeste 5 Oeste 0 -- -- 78
2019-06-21 00:00:00 15.3 3 Oeste 5 Este 0 -- -- 76
2019-06-20 23:00:00 15.9 2 Sudeste 13 Este 0 -- -- 73
2019-06-20 22:00:00 17.2 8 Este 24 Sudeste 0 -- -- 66
2019-06-20 21:00:00 18.7 12 Este 16 Sudeste 0 -- -- 65
2019-06-20 20:00:00 19.2 8 Este 20 Sur 0 -- -- 64
2019-06-20 19:00:00 21.7 10 Sudeste 29 Sudeste 0 -- -- 55
2019-06-20 18:00:00 22 13 Sudeste 28 Sudeste 0 -- -- 52
2019-06-20 17:00:00 22.8 13 Sudeste 35 Sudeste 0 -- -- 50
2019-06-20 16:00:00 25.2 13 Sur 31 Sudeste 0 -- -- 49
2019-06-20 15:00:00 24.6 16 Sudeste 31 Sudeste 0 -- -- 51
2019-06-20 14:00:00 25.2 14 Sudeste 25 Sudeste 0 -- -- 47
2019-06-20 13:00:00 25 12 Sudeste 28 Este 0 -- -- 46
2019-06-20 12:00:00 23.4 17 Este 34 Este 0 -- -- 50
2019-06-20 11:00:00 22.8 18 Este 27 Nordeste 0 -- -- 54
2019-06-20 10:00:00 21.9 11 Sudeste 22 Sudeste 0 -- -- 56
2019-06-20 09:00:00 20.6 12 Sudeste 19 Sudeste 0 -- -- 58
2019-06-20 08:00:00 20 8 Este 15 Sudeste 0 -- -- 60
2019-06-20 07:00:00 15.4 0 Calma 6 Este 0 -- -- 77
2019-06-20 06:00:00 14.7 0 Calma 4 Noroeste 0 -- -- 79
2019-06-20 05:00:00 14.8 0 Calma 6 Noroeste 0 -- -- 76
2019-06-20 04:00:00 14.7 4 Noroeste 8 Noroeste 0 -- -- 78
2019-06-20 03:00:00 14.6 2 Noroeste 6 Este 0 -- -- 74
2019-06-20 02:00:00 15.2 2 Oeste 4 Oeste 0 -- -- 66
2019-06-20 01:00:00 16 2 Norte 9 Noroeste 0 -- -- 61
2019-06-20 00:00:00 16.9 6 Noroeste 11 Noroeste 0 -- -- 60
2019-06-19 23:00:00 18.1 6 Noroeste 10 Noroeste 0 -- -- 65
2019-06-19 22:00:00 19.2 5 Noroeste 9 Sudeste 0 -- -- 71
2019-06-19 21:00:00 22.7 5 Sudeste 17 Sudeste 0 -- -- 59
2019-06-19 20:00:00 22.7 9 Sudeste 15 Sudeste 0 -- -- 62
2019-06-19 19:00:00 24.6 7 Sudeste 21 Sudeste 0 -- -- 55
2019-06-19 18:00:00 27.1 12 Sudeste 26 Sur 0 -- -- 46
2019-06-19 17:00:00 28.8 13 Sur 23 Sur 0 -- -- 39
2019-06-19 16:00:00 28.5 13 Sudoeste 29 Sudeste 0 -- -- 42
2019-06-19 15:00:00 28.1 15 Sudeste -- -- -- -- -- 43
2019-06-19 14:00:00 -- -- -- -- -- -- -- -- --
2019-06-19 13:00:00 -- -- -- -- -- -- -- -- --
2019-06-19 12:00:00 -- -- -- -- -- -- -- -- --
2019-06-19 11:00:00 -- -- -- -- -- -- -- -- --
2019-06-19 10:00:00 -- -- -- -- -- -- -- -- --
2019-06-19 09:00:00 -- -- -- -- -- -- -- -- --
2019-06-19 08:00:00 -- -- -- -- -- -- -- -- --
2019-06-19 07:00:00 -- -- -- -- -- -- -- -- --
2019-06-19 06:00:00 -- -- -- -- -- -- -- -- --
2019-06-19 05:00:00 -- -- -- -- -- -- -- -- --
2019-06-19 04:00:00 -- -- -- -- -- -- -- -- --
2019-06-19 03:00:00 -- -- -- -- -- -- -- -- --
2019-06-19 02:00:00 -- -- -- -- -- -- -- -- --
2019-06-19 01:00:00 -- -- -- -- -- -- -- -- --
2019-06-19 00:00:00 -- -- -- -- -- -- -- -- --
2019-06-18 23:00:00 -- -- -- -- -- -- -- -- --
2019-06-18 22:00:00 -- -- -- -- -- -- -- -- --
2019-06-18 21:00:00 -- -- -- -- -- -- -- -- --
2019-06-18 20:00:00 -- -- -- -- -- -- -- -- --
2019-06-18 19:00:00 23 19 Oeste 37 Oeste 0 -- -- 26
2019-06-18 18:00:00 23.9 21 Sudoeste 36 Sudoeste 0 -- -- 28
2019-06-18 17:00:00 24.4 22 Sudoeste 39 Sudoeste 0 -- -- 29
2019-06-18 16:00:00 25 21 Sudoeste 33 Oeste 0 -- -- 28
2019-06-18 15:00:00 24.6 21 Sudoeste 37 Sudoeste 0 -- -- 30
2019-06-18 14:00:00 24.8 14 Sudoeste 35 Oeste 0 -- -- 32
2019-06-18 13:00:00 24.2 16 Sudoeste 32 Sur 0 -- -- 27
2019-06-18 12:00:00 23.9 12 Sudoeste 35 Oeste 0 -- -- 30
2019-06-18 11:00:00 23.7 12 Sudoeste 25 Sudoeste 0 -- -- 26
2019-06-18 10:00:00 23.4 4 Sudoeste 27 Sudoeste 0 -- -- 24
2019-06-18 09:00:00 21.1 4 Oeste 15 Noroeste 0 -- -- 23
2019-06-18 08:00:00 19.4 10 Noroeste 18 Noroeste 0 -- -- 31
2019-06-18 07:00:00 16.4 9 Noroeste 15 Noroeste 0 -- -- 44
2019-06-18 06:00:00 15.6 10 Noroeste 17 Noroeste 0 -- -- 49
2019-06-18 05:00:00 15.8 10 Noroeste 16 Noroeste 0 -- -- 52
2019-06-18 04:00:00 16.6 11 Noroeste 20 Noroeste 0 -- -- 47
2019-06-18 03:00:00 16.4 17 Noroeste 23 Noroeste 0 -- -- 46
2019-06-18 02:00:00 16.3 17 Noroeste 24 Noroeste 0 -- -- 44
2019-06-18 01:00:00 16.7 16 Noroeste 21 Noroeste 0 -- -- 40
2019-06-18 00:00:00 16.9 16 Oeste 24 Oeste 0 -- -- 37
2019-06-17 23:00:00 17.3 12 Noroeste 22 Noroeste 0 -- -- 34
2019-06-17 22:00:00 17.4 9 Noroeste 20 Noroeste 0 -- -- 44
2019-06-17 21:00:00 19.8 14 Oeste 32 Oeste 0 -- -- 41
2019-06-17 20:00:00 22 13 Oeste 33 Sudoeste 0 -- -- 40
2019-06-17 19:00:00 23.2 19 Oeste 34 Oeste 0 -- -- 34
2019-06-17 18:00:00 25.4 12 Sudoeste 24 Sur 0 -- -- 41
2019-06-17 17:00:00 26 13 Sur 27 Sur 0 -- -- 43
2019-06-17 16:00:00 27 12 Sur 25 Sudoeste 0 -- -- 39
2019-06-17 15:00:00 26.2 15 Sur 28 Sudeste 0 -- -- 35
2019-06-17 14:00:00 27 13 Sur 27 Sudeste 0 -- -- 34
2019-06-17 13:00:00 25.8 15 Sudeste 25 Sudeste 0 -- -- 33
2019-06-17 12:00:00 25 10 Este 22 Sudeste 0 -- -- 33
2019-06-17 11:00:00 24.8 8 Sudoeste 17 Sudoeste 0 -- -- 30
2019-06-17 10:00:00 25.3 4 Sur 9 Sudeste 0 -- -- 25
2019-06-17 09:00:00 23.1 3 Sudeste 6 Sudeste 0 -- -- 30
2019-06-17 08:00:00 17.3 3 Noroeste 10 Noroeste 0 -- -- 44
2019-06-17 07:00:00 12.5 8 Noroeste 10 Noroeste 0 -- -- 54
2019-06-17 06:00:00 13.9 6 Noroeste 15 Noroeste 0 -- -- 46
2019-06-17 05:00:00 13.3 10 Noroeste 13 Noroeste 0 -- -- 50
2019-06-17 04:00:00 12.9 9 Noroeste 11 Noroeste 0 -- -- 53
2019-06-17 03:00:00 11.7 8 Noroeste 9 Noroeste 0 -- -- 60
2019-06-17 02:00:00 13.9 8 Noroeste 10 Noroeste 0 -- -- 52
2019-06-17 01:00:00 16.3 7 Noroeste 15 Noroeste 0 -- -- 43
2019-06-17 00:00:00 14.2 10 Noroeste 18 Noroeste 0 -- -- 55
2019-06-16 23:00:00 15.6 16 Noroeste 23 Noroeste 0 -- -- 52
2019-06-16 22:00:00 16.3 14 Noroeste 21 Oeste 0 -- -- 53
2019-06-16 21:00:00 17.1 14 Noroeste 26 Noroeste 0 -- -- 59
2019-06-16 20:00:00 18.9 12 Oeste 22 Oeste 0 -- -- 55
2019-06-16 19:00:00 20.2 15 Noroeste 31 Oeste 0 -- -- 48
2019-06-16 18:00:00 21.6 16 Oeste 36 Oeste 0 -- -- 47
2019-06-16 17:00:00 22.4 26 Sudoeste 41 Sudoeste 0 -- -- 44
2019-06-16 16:00:00 24.4 21 Oeste 39 Sudoeste 0 -- -- 37
2019-06-16 15:00:00 22.9 25 Sudoeste 39 Sudoeste 0 -- -- 40
2019-06-16 14:00:00 23 24 Oeste 38 Sudoeste 0 -- -- 41
2019-06-16 13:00:00 22.3 17 Oeste 30 Oeste 0 -- -- 42
2019-06-16 12:00:00 21.9 12 Sudoeste 23 Oeste 0 -- -- 42
2019-06-16 11:00:00 20.8 9 Sudoeste 17 Sudoeste 0 -- -- 47
2019-06-16 10:00:00 18.9 12 Noroeste 20 Noroeste 0 -- -- 52
2019-06-16 09:00:00 17.3 13 Oeste 22 Sudoeste 0 -- -- 59
2019-06-16 08:00:00 16 7 Noroeste 13 Noroeste 0 -- -- 69
2019-06-16 07:00:00 11.4 9 Noroeste 12 Noroeste 0 -- -- 89
2019-06-16 06:00:00 9.9 6 Noroeste 10 Noroeste 0 -- -- 89
2019-06-16 05:00:00 9.9 6 Noroeste 12 Noroeste 0 -- -- 87
2019-06-16 04:00:00 10.1 7 Noroeste 12 Noroeste 0 -- -- 87
2019-06-16 03:00:00 10.7 8 Noroeste 11 Noroeste 0 -- -- 88
2019-06-16 02:00:00 11.6 7 Noroeste 10 Noroeste 0 -- -- 87
2019-06-16 01:00:00 12.8 6 Noroeste 9 Noroeste 0 -- -- 86
2019-06-16 00:00:00 13.6 4 Oeste 9 Oeste 0 -- -- 84
2019-06-15 23:00:00 14.6 5 Sudoeste 12 Sudoeste 0 -- -- 83
2019-06-15 22:00:00 15.1 4 Este 21 Sur 0 -- -- 80
2019-06-15 21:00:00 17.2 10 Sur 20 Sur 0 -- -- 71
2019-06-15 20:00:00 20.5 12 Sur 27 Sudeste 0 -- -- 57
2019-06-15 19:00:00 22.6 15 Sur 26 Sudoeste 0 -- -- 45
2019-06-15 18:00:00 24.2 10 Sudoeste 23 Sudoeste 0 -- -- 39
2019-06-15 17:00:00 23.7 13 Sudoeste 27 Sudoeste 0 -- -- 41
2019-06-15 16:00:00 24.7 11 Oeste 31 Noroeste 0 -- -- 26
2019-06-15 15:00:00 24.5 13 Sudoeste 27 Oeste 0 -- -- 26
2019-06-15 14:00:00 23.9 15 Noroeste 26 Noroeste 0 -- -- 27
2019-06-15 13:00:00 22.9 9 Noroeste 25 Noroeste 0 -- -- 27
2019-06-15 12:00:00 21.6 14 Noroeste 37 Oeste 0 -- -- 28
2019-06-15 11:00:00 20.2 19 Oeste 38 Noroeste 0 -- -- 38
2019-06-15 10:00:00 19.1 21 Noroeste 40 Oeste 0 -- -- 38
2019-06-15 09:00:00 18.5 13 Noroeste 35 Noroeste 0 -- -- 48
2019-06-15 08:00:00 17.2 15 Noroeste 31 Noroeste 0 -- -- 54
2019-06-15 07:00:00 16.7 14 Noroeste 35 Oeste 0 -- -- 56
2019-06-15 06:00:00 15.7 11 Oeste 20 Oeste 0 -- -- 58
2019-06-15 05:00:00 11.5 7 Noroeste 10 Noroeste 0 -- -- 79
2019-06-15 04:00:00 12.1 4 Noroeste 12 Noroeste 0 -- -- 73
2019-06-15 03:00:00 13.2 8 Noroeste 13 Noroeste 0 -- -- 70
2019-06-15 02:00:00 13.1 10 Noroeste 13 Noroeste 0 -- -- 73
2019-06-15 01:00:00 13.9 8 Noroeste 15 Oeste 0 -- -- 70
2019-06-15 00:00:00 14.7 13 Noroeste 17 Noroeste 0 -- -- 67
2019-06-14 23:00:00 14.9 8 Noroeste 18 Noroeste 0 -- -- 70
2019-06-14 22:00:00 16.3 10 Noroeste 18 Noroeste 0 -- -- 68
2019-06-14 21:00:00 19 9 Oeste 18 Oeste 0 -- -- 60
2019-06-14 20:00:00 20.5 14 Oeste 28 Sudoeste 0 -- -- 56
2019-06-14 19:00:00 21.8 16 Oeste 29 Sudoeste 0 -- -- 53
2019-06-14 18:00:00 21.7 19 Oeste 40 Oeste 0 -- -- 50
2019-06-14 17:00:00 22.6 18 Oeste 37 Oeste 0 -- -- 48
2019-06-14 16:00:00 20 22 Oeste 41 Oeste 0 -- -- 55
2019-06-14 15:00:00 21.8 27 Sudoeste 41 Sudoeste 0 -- -- 44
2019-06-14 14:00:00 22.3 22 Oeste 35 Oeste 0 -- -- 43
2019-06-14 13:00:00 19.8 7 Oeste 43 Sur 0 -- -- 51
2019-06-14 12:00:00 20.6 12 Noroeste 28 Noroeste 0 -- -- 45
2019-06-14 11:00:00 21 13 Noroeste 34 Noroeste 0 -- -- 43
2019-06-14 10:00:00 17.9 11 Noroeste 25 Oeste 0 -- -- 52
2019-06-14 09:00:00 17.7 12 Nordeste 26 Norte 0 -- -- 49
2019-06-14 08:00:00 16.9 3 Noroeste 13 Noroeste 0 -- -- 54
2019-06-14 07:00:00 15.2 2 Noroeste 8 Sudoeste 0 -- -- 54
2019-06-14 06:00:00 15 5 Este 22 Este 0 -- -- 50
2019-06-14 05:00:00 14.2 9 Este 21 Este 0 -- -- 50
2019-06-14 04:00:00 14.5 13 Este 21 Este 0 -- -- 44
2019-06-14 03:00:00 15.2 12 Este 23 Este 0 -- -- 37
2019-06-14 02:00:00 14.4 11 Este 19 Este 0 -- -- 34
2019-06-14 01:00:00 14 12 Este 18 Este 0 -- -- 37
2019-06-14 00:00:00 13.6 7 Este 12 Este 0 -- -- 36
2019-06-13 23:00:00 13.6 7 Este 15 Este 0 -- -- 33
2019-06-13 22:00:00 14.6 8 Sudeste 16 Sudeste 0 -- -- 32
2019-06-13 21:00:00 16 10 Este 23 Este 0 -- -- 31
2019-06-13 20:00:00 17.8 18 Este 27 Este 0 -- -- 32
2019-06-13 19:00:00 19.1 15 Sudeste 28 Sudeste 0 -- -- 44
2019-06-13 18:00:00 19.8 12 Sudeste 25 Sudeste 0 -- -- 40
2019-06-13 17:00:00 19.7 13 Sudeste 24 Sudeste 0 -- -- 50
2019-06-13 16:00:00 19.6 12 Sudeste 26 Sudeste 0 -- -- 49
2019-06-13 15:00:00 21.7 12 Sudeste 23 Sudeste 0 -- -- 40
2019-06-13 14:00:00 20.9 12 Sudeste 26 Este 0 -- -- 36
2019-06-13 13:00:00 20.2 10 Sudeste 19 Sudeste 0 -- -- 33
2019-06-13 12:00:00 19.4 9 Sudeste 17 Sudeste 0 -- -- 33
2019-06-13 11:00:00 18.7 6 Sudeste 21 Sudeste 0 -- -- 28
2019-06-13 10:00:00 17.3 10 Sudeste 16 Sudeste 0 -- -- 35
2019-06-13 09:00:00 15.5 8 Este 12 Este 0 -- -- 48
2019-06-13 08:00:00 12.1 2 Nordeste 9 Noroeste 0 -- -- 77
2019-06-13 07:00:00 7.6 5 Noroeste 7 Noroeste 0 -- -- 87
2019-06-13 06:00:00 7.9 4 Noroeste 5 Noroeste 0 -- -- 86
2019-06-13 05:00:00 7.9 4 Noroeste 9 Noroeste 0 -- -- 85
2019-06-13 04:00:00 6.9 3 Noroeste 10 Noroeste 0 -- -- 83
2019-06-13 03:00:00 5.8 8 Noroeste 12 Noroeste 0 -- -- 73
2019-06-13 02:00:00 5.7 6 Noroeste 11 Noroeste 0 -- -- 72
2019-06-13 01:00:00 6.5 9 Noroeste 11 Noroeste 0 -- -- 73
2019-06-13 00:00:00 7.5 8 Noroeste 10 Noroeste 0 -- -- 78
2019-06-12 23:00:00 9.1 6 Noroeste 10 Noroeste 0 -- -- 75
2019-06-12 22:00:00 10.9 0 Calma 11 Sudeste 0 -- -- 70
2019-06-12 21:00:00 14.3 5 Oeste 24 Sudoeste 0 -- -- 56
2019-06-12 20:00:00 17.4 7 Sur 23 Sur 0 -- -- 43
2019-06-12 19:00:00 17.7 12 Sur 23 Sudeste 0 -- -- 43
2019-06-12 18:00:00 18.5 13 Sur 26 Sur 0 -- -- 44
2019-06-12 17:00:00 18.7 12 Sur 24 Sur 0 -- -- 45
2019-06-12 16:00:00 16.8 14 Sudeste 24 Sudeste 0 -- -- 57
2019-06-12 15:00:00 15.5 12 Sudeste 28 Sudeste 0 -- -- 68
2019-06-12 14:00:00 16.9 19 Sudeste 26 Sudeste 0 -- -- 60
2019-06-12 13:00:00 17.1 10 Oeste 30 Oeste 0 -- -- 40
2019-06-12 12:00:00 15.7 9 Sudoeste 20 Oeste 0 -- -- 51
2019-06-12 11:00:00 13.3 8 Sudoeste 17 Oeste 0 -- -- 58
2019-06-12 10:00:00 12.2 11 Sudoeste 24 Oeste 0 -- -- 60
2019-06-12 09:00:00 11.4 8 Noroeste 17 Noroeste 0 -- -- 65
2019-06-12 08:00:00 9.5 5 Noroeste 8 Noroeste 0 -- -- 83
2019-06-12 07:00:00 6.1 5 Noroeste 6 Noroeste 0.2 -- -- 88
2019-06-12 06:00:00 6.6 0 Calma 6 Norte 0 -- -- 89
2019-06-12 05:00:00 7.7 0 Calma 10 Noroeste 0 -- -- 89
2019-06-12 04:00:00 8 0 Calma 10 Noroeste 0 -- -- 89
2019-06-12 03:00:00 8 2 Este 21 Oeste 0 -- -- 89
2019-06-12 02:00:00 7.4 8 Oeste 12 Noroeste 0 -- -- 90
2019-06-12 01:00:00 7.7 2 Oeste 11 Oeste 0 -- -- 89
2019-06-12 00:00:00 8 3 Noroeste 6 Noroeste 0 -- -- 87
2019-06-11 23:00:00 9 4 Oeste 11 Oeste 0 -- -- 87
2019-06-11 22:00:00 9.9 2 Sur 10 Sur 0 -- -- 87
2019-06-11 21:00:00 10.8 0 Calma 10 Sudeste 0 -- -- 86
2019-06-11 20:00:00 11.5 3 Sudeste 6 Sudeste 0 -- -- 80
2019-06-11 19:00:00 10.4 0 Calma 13 Sudoeste 1.4 -- -- 83
2019-06-11 18:00:00 10.7 4 Noroeste 22 Oeste 0.4 -- -- 79
2019-06-11 17:00:00 11.2 9 Noroeste 21 Noroeste 0 -- -- 78
2019-06-11 16:00:00 10.4 5 Sudoeste 24 Oeste 0.2 -- -- 82
2019-06-11 15:00:00 9.6 15 Oeste 31 Oeste 2.8 -- -- 85
2019-06-11 14:00:00 9.3 17 Noroeste 37 Oeste 0.8 -- -- 85
2019-06-11 13:00:00 9.8 9 Noroeste 23 Norte 3.2 -- -- 86
2019-06-11 12:00:00 9.7 5 Norte 15 Noroeste 4.6 -- -- 85
2019-06-11 11:00:00 10.7 5 Noroeste 16 Noroeste 0.6 -- -- 74
2019-06-11 10:00:00 11.3 4 Noroeste 13 Noroeste 0 -- -- 66
2019-06-11 09:00:00 11 8 Oeste 17 Noroeste 0.2 -- -- 65
2019-06-11 08:00:00 10.8 5 Nordeste 18 Norte 0 -- -- 65
2019-06-11 07:00:00 12.7 3 Oeste 17 Norte 0 -- -- 50
2019-06-11 06:00:00 12.5 6 Oeste 21 Norte 0 -- -- 50
2019-06-11 05:00:00 11.3 5 Oeste 21 Noroeste 0 -- -- 61
2019-06-11 04:00:00 11.3 6 Noroeste 10 Noroeste 0.2 -- -- 68
2019-06-11 03:00:00 14.8 4 Norte 12 Norte 0 -- -- 44
2019-06-11 02:00:00 14.7 5 Nordeste 12 Este 0 -- -- 76
2019-06-11 01:00:00 15.4 6 Sudeste 23 Sudeste 0 -- -- 69
2019-06-11 00:00:00 16.9 12 Oeste 22 Oeste 0 -- -- 34
2019-06-10 23:00:00 15.9 8 Noroeste 10 Noroeste 0 -- -- 44
2019-06-10 22:00:00 16.7 4 Noroeste 12 Sudoeste 0 -- -- 57
2019-06-10 21:00:00 19 10 Oeste 29 Oeste 0 -- -- 49
2019-06-10 20:00:00 21.2 11 Noroeste 26 Noroeste 0 -- -- 32
2019-06-10 19:00:00 22.5 18 Noroeste 35 Noroeste 0 -- -- 30
2019-06-10 18:00:00 23.7 20 Noroeste 35 Noroeste 0 -- -- 30
2019-06-10 17:00:00 23.7 19 Oeste 33 Oeste 0 -- -- 31
2019-06-10 16:00:00 23.3 17 Noroeste 34 Noroeste 0 -- -- 34
2019-06-10 15:00:00 23 18 Noroeste 30 Oeste 0 -- -- 33
2019-06-10 14:00:00 22.3 14 Noroeste 30 Oeste 0 -- -- 36
2019-06-10 13:00:00 21.1 13 Noroeste 32 Noroeste 0 -- -- 42
2019-06-10 12:00:00 19.6 14 Noroeste 27 Noroeste 0 -- -- 46
2019-06-10 11:00:00 19.2 11 Noroeste 22 Noroeste 0 -- -- 48
2019-06-10 10:00:00 17 6 Norte 20 Noroeste 0 -- -- 53
2019-06-10 09:00:00 16.2 8 Noroeste 21 Oeste 0 -- -- 56
2019-06-10 08:00:00 15.5 5 Oeste 14 Oeste 0 -- -- 58
2019-06-10 07:00:00 13.9 9 Oeste 18 Oeste 0 -- -- 63
2019-06-10 06:00:00 14.2 14 Sudoeste 19 Sudoeste 0 -- -- 53
2019-06-10 05:00:00 14.5 4 Oeste 9 Sudoeste 0 -- -- 35
2019-06-10 04:00:00 12 6 Noroeste 13 Noroeste 0 -- -- 36
2019-06-10 03:00:00 13.6 5 Noroeste 17 Noroeste 0 -- -- 30
2019-06-10 02:00:00 12.6 10 Noroeste 13 Noroeste 0 -- -- 47
2019-06-10 01:00:00 12.6 6 Noroeste 11 Noroeste 0 -- -- 49
2019-06-10 00:00:00 14.2 8 Noroeste 13 Noroeste 0 -- -- 43
2019-06-09 23:00:00 14.7 6 Sudeste 13 Noroeste 0 -- -- 44
2019-06-09 22:00:00 15.4 8 Noroeste 19 Noroeste 0 -- -- 45
2019-06-09 21:00:00 17.4 12 Noroeste 23 Noroeste 0 -- -- 43
2019-06-09 20:00:00 20 12 Oeste 24 Noroeste 0 -- -- 32
2019-06-09 19:00:00 20 8 Sudoeste 27 Sudoeste 0 -- -- 37
2019-06-09 18:00:00 19.9 16 Sudoeste 32 Sudoeste 0 -- -- 36
2019-06-09 17:00:00 22.9 5 Sudeste 26 Sudeste 0 -- -- 27
2019-06-09 16:00:00 23 7 Este 15 Sudoeste 0 -- -- 24
2019-06-09 15:00:00 21.3 9 Sudeste 19 Nordeste 0 -- -- 28
2019-06-09 14:00:00 21.9 4 Este 18 Nordeste 0 -- -- 24
2019-06-09 13:00:00 21.7 5 Este 14 Este 0 -- -- 22
2019-06-09 12:00:00 22.3 3 Norte 21 Este 0 -- -- 23
2019-06-09 11:00:00 20.4 12 Este 19 Este 0 -- -- 26
2019-06-09 10:00:00 19.7 2 Nordeste 19 Este 0 -- -- 30
2019-06-09 09:00:00 16 6 Noroeste 8 Noroeste 0 -- -- 45
2019-06-09 08:00:00 14.7 7 Noroeste 9 Noroeste 0 -- -- 41
2019-06-09 07:00:00 14.4 3 Noroeste 9 Este 0 -- -- 36
2019-06-09 06:00:00 14.9 6 Este 10 Este 0 -- -- 31
2019-06-09 05:00:00 13.2 0 Calma 5 Nordeste 0 -- -- 34
2019-06-09 04:00:00 14.5 4 Este 14 Este 0 -- -- 28
2019-06-09 03:00:00 14.9 3 Este 13 Este 0 -- -- 28
2019-06-09 02:00:00 15.6 9 Este 13 Este 0 -- -- 25
2019-06-09 01:00:00 13.6 0 Calma 5 Noroeste 0 -- -- 51
2019-06-09 00:00:00 13.7 2 Noroeste 6 Noroeste 0 -- -- 53
2019-06-08 23:00:00 13.4 4 Noroeste 7 Noroeste 0 -- -- 55
2019-06-08 22:00:00 14 4 Noroeste 8 Noroeste 0 -- -- 52
2019-06-08 21:00:00 16.4 4 Sudoeste 10 Sur 0 -- -- 42
2019-06-08 20:00:00 18.5 6 Sur 17 Sur 0 -- -- 37
2019-06-08 19:00:00 20.1 11 Sudeste 22 Sudeste 0 -- -- 34
2019-06-08 18:00:00 21.3 12 Sur 23 Sur 0 -- -- 37
2019-06-08 17:00:00 21.1 13 Sudoeste 31 Sudoeste 0 -- -- 41
2019-06-08 16:00:00 -- -- -- -- -- -- -- -- --
2019-06-08 15:00:00 -- -- -- -- -- -- -- -- --
2019-06-08 14:00:00 -- -- -- -- -- -- -- -- --
2019-06-08 13:00:00 -- -- -- -- -- -- -- -- --
2019-06-08 12:00:00 -- -- -- -- -- -- -- -- --
2019-06-08 11:00:00 19.2 14 Sudeste 21 Sudeste 0 -- -- 41
2019-06-08 10:00:00 19.7 8 Sudeste 15 Sudeste 0 -- -- 40
2019-06-08 09:00:00 17.2 8 Este 12 Este 0 -- -- 49
2019-06-08 08:00:00 14.4 2 Norte 9 Noroeste 0 -- -- 62
2019-06-08 07:00:00 9.8 8 Noroeste 13 Noroeste 0 -- -- 74
2019-06-08 06:00:00 8.5 10 Noroeste 13 Noroeste 0 -- -- 80
2019-06-08 05:00:00 8.8 10 Noroeste 13 Noroeste 0 -- -- 79
2019-06-08 04:00:00 9.1 10 Noroeste 11 Noroeste 0 -- -- 72
2019-06-08 03:00:00 8.9 8 Noroeste 12 Noroeste 0 -- -- 59
2019-06-08 02:00:00 10.9 6 Noroeste 10 Noroeste 0 -- -- 47
2019-06-08 01:00:00 13.4 2 Noroeste 14 Este 0 -- -- 36
2019-06-08 00:00:00 15.6 6 Noroeste 12 Oeste 0 -- -- 26
2019-06-07 23:00:00 15.1 6 Noroeste 12 Noroeste 0 -- -- 27
2019-06-07 22:00:00 16 4 Oeste 14 Oeste 0 -- -- 27
2019-06-07 21:00:00 19.5 6 Noroeste 24 Noroeste 0 -- -- 20
2019-06-07 20:00:00 21.3 15 Noroeste 31 Noroeste 0 -- -- 19
2019-06-07 19:00:00 22.3 17 Noroeste 34 Oeste 0 -- -- 20
2019-06-07 18:00:00 22.8 23 Noroeste 41 Noroeste 0 -- -- 18
2019-06-07 17:00:00 22.2 26 Noroeste 41 Oeste 0 -- -- 21
2019-06-07 16:00:00 22.1 23 Noroeste 43 Noroeste 0 -- -- 30
2019-06-07 15:00:00 21.2 23 Noroeste 46 Noroeste 0 -- -- 37
2019-06-07 14:00:00 20.7 21 Noroeste 46 Oeste 0 -- -- 41
2019-06-07 13:00:00 20.2 28 Oeste 46 Oeste 0 -- -- 49
2019-06-07 12:00:00 19.9 17 Oeste 31 Oeste 0 -- -- 54
2019-06-07 11:00:00 18.2 18 Oeste 33 Sudoeste 0 -- -- 61
2019-06-07 10:00:00 16.3 14 Oeste 24 Oeste 0 -- -- 68
2019-06-07 09:00:00 15.3 8 Sudoeste 24 Oeste 0 -- -- 73
2019-06-07 08:00:00 14.7 4 Oeste 11 Sudoeste 0 -- -- 79
2019-06-07 07:00:00 13.3 7 Sudoeste 17 Sur 0 -- -- 85
2019-06-07 06:00:00 13.3 7 Sur 19 Sudoeste 0 -- -- 86
2019-06-07 05:00:00 13.4 5 Sur 14 Sur 0 -- -- 87
2019-06-07 04:00:00 12.7 5 Sudeste 11 Sur 0 -- -- 88
2019-06-07 03:00:00 12.7 5 Sur 17 Sur 0 -- -- 88
2019-06-07 02:00:00 12.2 6 Sur 16 Sudeste 0 -- -- 87
2019-06-07 01:00:00 12 3 Sudeste 6 Sudeste 0 -- -- 87
2019-06-07 00:00:00 12.3 3 Sudeste 11 Sudeste 0 -- -- 86
2019-06-06 23:00:00 12.5 8 Sudeste 15 Sudeste 0 -- -- 86
2019-06-06 22:00:00 12.8 8 Sudeste 22 Sudeste 0 -- -- 83
2019-06-06 21:00:00 13.6 7 Sudeste 20 Sudeste 0 -- -- 78
2019-06-06 20:00:00 16 6 Sur 26 Sudeste 0 -- -- 64
2019-06-06 19:00:00 17.6 15 Sudeste 32 Sudeste 0 -- -- 57
2019-06-06 18:00:00 18.6 14 Sudeste 27 Sudeste 0 -- -- 51
2019-06-06 17:00:00 18.7 11 Sur 27 Sudeste 0 -- -- 51
2019-06-06 16:00:00 19.5 15 Sur 31 Sudeste 0 -- -- 48
2019-06-06 15:00:00 19.2 17 Sur 31 Sur 0 -- -- 47
2019-06-06 14:00:00 18.7 13 Sudoeste 31 Sur 0 -- -- 56
2019-06-06 13:00:00 17.3 14 Sudoeste 27 Sur 0 -- -- 58
2019-06-06 12:00:00 17.7 11 Sur 26 Sur 0 -- -- 57
2019-06-06 11:00:00 18.2 9 Sur 23 Sur 0 -- -- 56
2019-06-06 10:00:00 16.7 13 Sudeste 18 Sudeste 0 -- -- 63
2019-06-06 09:00:00 14.7 4 Sudeste 12 Sudeste 0 -- -- 68
2019-06-06 08:00:00 9.7 5 Noroeste 10 Noroeste 0 -- -- 66
2019-06-06 07:00:00 7.1 8 Noroeste 12 Noroeste 0 -- -- 70
2019-06-06 06:00:00 6.4 8 Noroeste 11 Noroeste 0 -- -- 72
2019-06-06 05:00:00 6.1 7 Noroeste 10 Noroeste 0 -- -- 73
2019-06-06 04:00:00 6.9 3 Norte 12 Noroeste 0 -- -- 69
2019-06-06 03:00:00 7.3 8 Noroeste 10 Noroeste 0 -- -- 68
2019-06-06 02:00:00 9.1 5 Noroeste 9 Sudeste 0 -- -- 61
2019-06-06 01:00:00 11.3 8 Este 25 Oeste 0 -- -- 52
2019-06-06 00:00:00 13 18 Oeste 29 Noroeste 0 -- -- 46
2019-06-05 23:00:00 13.5 18 Oeste 32 Noroeste 0 -- -- 47
2019-06-05 22:00:00 14.1 15 Noroeste 28 Oeste 0 -- -- 47
2019-06-05 21:00:00 15.5 20 Noroeste 64 Noroeste 0 -- -- 44
2019-06-05 20:00:00 16.4 38 Noroeste 60 Oeste 0 -- -- 43
2019-06-05 19:00:00 16.6 35 Noroeste 60 Noroeste 0 -- -- 42
2019-06-05 18:00:00 17.7 22 Noroeste 53 Noroeste 0 -- -- 39
2019-06-05 17:00:00 17.2 33 Noroeste 57 Noroeste 0 -- -- 52
2019-06-05 16:00:00 15.5 35 Noroeste 57 Noroeste 0.2 -- -- 57
2019-06-05 15:00:00 16.9 31 Noroeste 51 Noroeste 0 -- -- 58
2019-06-05 14:00:00 18 23 Noroeste 44 Oeste 0.2 -- -- 66
2019-06-05 13:00:00 18.3 13 Oeste 27 Noroeste 0 -- -- 59
2019-06-05 12:00:00 18.5 9 Sudoeste 22 Sudoeste 0 -- -- 58
2019-06-05 11:00:00 18.3 9 Sur 21 Sudoeste 0 -- -- 60
2019-06-05 10:00:00 17.3 10 Sudeste 18 Sudeste 0 -- -- 68
2019-06-05 09:00:00 16.1 10 Sudeste 16 Sudeste 0 -- -- 67
2019-06-05 08:00:00 16.3 6 Sudeste 8 Sudeste 0 -- -- 79
2019-06-05 07:00:00 10.9 4 Noroeste 8 Noroeste 0 -- -- 89
2019-06-05 06:00:00 10.1 7 Noroeste 9 Noroeste 0 -- -- 89
2019-06-05 05:00:00 10.8 6 Noroeste 7 Noroeste 0 -- -- 88
2019-06-05 04:00:00 12.5 2 Noroeste 5 Noroeste 0 -- -- 87
2019-06-05 03:00:00 12.1 4 Noroeste 7 Oeste 0 -- -- 85
2019-06-05 02:00:00 13.1 2 Nordeste 6 Sur 0 -- -- 85
2019-06-05 01:00:00 12.6 2 Sudoeste 17 Sudoeste 0 -- -- 82
2019-06-05 00:00:00 12.9 3 Sur 12 Sur 0 -- -- 76
2019-06-04 23:00:00 15.1 8 Sur 21 Sur 0 -- -- 66
2019-06-04 22:00:00 16.1 12 Sur 22 Sur 0 -- -- 58
2019-06-04 21:00:00 17.9 12 Sur 25 Sudoeste 0 -- -- 47
2019-06-04 20:00:00 21.5 10 Sur 28 Oeste 0 -- -- 38
2019-06-04 19:00:00 22.6 12 Sur 28 Sur 0 -- -- 34
2019-06-04 18:00:00 23.6 13 Sur 32 Sur 0 -- -- 33
2019-06-04 17:00:00 24.4 15 Sur 30 Sur 0 -- -- 34
2019-06-04 16:00:00 23.9 15 Sur 30 Sudoeste 0 -- -- 40
2019-06-04 15:00:00 23.9 14 Sudoeste 35 Sur 0 -- -- 30
2019-06-04 14:00:00 24 15 Sur 32 Sudeste 0 -- -- 33
2019-06-04 13:00:00 23.1 18 Sur 30 Sudeste 0 -- -- 36
2019-06-04 12:00:00 22.5 15 Sur 33 Sudoeste 0 -- -- 36
2019-06-04 11:00:00 21.4 14 Sudoeste 29 Sur 0 -- -- 40
2019-06-04 10:00:00 20.3 9 Sudoeste 21 Oeste 0 -- -- 45
2019-06-04 09:00:00 19 6 Este 10 Sudeste 0 -- -- 50
2019-06-04 08:00:00 16.2 3 Noroeste 8 Noroeste 0 -- -- 55
2019-06-04 07:00:00 11.7 6 Noroeste 9 Noroeste 0 -- -- 70
2019-06-04 06:00:00 11.6 3 Noroeste 8 Noroeste 0 -- -- 71
2019-06-04 05:00:00 11.9 4 Noroeste 9 Noroeste 0 -- -- 65
2019-06-04 04:00:00 13.9 3 Noroeste 12 Noroeste 0 -- -- 56
2019-06-04 03:00:00 13.1 4 Noroeste 9 Norte 0 -- -- 59
2019-06-04 02:00:00 12.4 5 Noroeste 7 Noroeste 0 -- -- 64
2019-06-04 01:00:00 13.8 4 Norte 13 Noroeste 0 -- -- 61
2019-06-04 00:00:00 15.4 7 Noroeste 14 Noroeste 0 -- -- 54
2019-06-03 23:00:00 15 9 Noroeste 14 Noroeste 0 -- -- 53
2019-06-03 22:00:00 16.6 8 Noroeste 15 Noroeste 0 -- -- 44
2019-06-03 21:00:00 18.4 9 Oeste 26 Sudoeste 0 -- -- 40
2019-06-03 20:00:00 20.8 13 Sudoeste 26 Oeste 0 -- -- 30
2019-06-03 19:00:00 20.6 17 Oeste 36 Sudoeste 0 -- -- 25
2019-06-03 18:00:00 22.7 23 Oeste 36 Oeste 0 -- -- 25
2019-06-03 17:00:00 23.4 19 Sudoeste 36 Sudoeste 0 -- -- 26
2019-06-03 16:00:00 23.9 17 Sudoeste 42 Oeste 0 -- -- 26
2019-06-03 15:00:00 23.5 16 Sudoeste 37 Sudoeste 0 -- -- 27
2019-06-03 14:00:00 23.5 21 Sudoeste 36 Sur 0 -- -- 26
2019-06-03 13:00:00 23.1 19 Sudoeste 37 Sudoeste 0 -- -- 27
2019-06-03 12:00:00 22.6 21 Sudoeste 32 Sur 0 -- -- 28
2019-06-03 11:00:00 21.6 20 Oeste 32 Sudoeste 0 -- -- 27
2019-06-03 10:00:00 20.1 21 Sudoeste 30 Oeste 0 -- -- 26
2019-06-03 09:00:00 19.1 17 Noroeste 24 Noroeste 0 -- -- 28
2019-06-03 08:00:00 17.8 10 Noroeste 21 Noroeste 0 -- -- 33
2019-06-03 07:00:00 15.7 15 Noroeste 21 Oeste 0 -- -- 37
2019-06-03 06:00:00 14 13 Noroeste 22 Oeste 0 -- -- 43
2019-06-03 05:00:00 15 12 Oeste 21 Oeste 0 -- -- 45
2019-06-03 04:00:00 15.6 13 Noroeste 21 Noroeste 0 -- -- 48
2019-06-03 03:00:00 15.5 15 Noroeste 24 Noroeste 0 -- -- 52
2019-06-03 02:00:00 15.9 17 Noroeste 28 Oeste 0 -- -- 49
2019-06-03 01:00:00 16.1 17 Noroeste 28 Noroeste 0 -- -- 46
2019-06-03 00:00:00 16.4 16 Noroeste 26 Noroeste 0 -- -- 38
2019-06-02 23:00:00 16.7 13 Noroeste 26 Noroeste 0 -- -- 31
2019-06-02 22:00:00 16.9 14 Noroeste 25 Noroeste 0 -- -- 31
2019-06-02 21:00:00 18.9 9 Noroeste 27 Oeste 0 -- -- 28
2019-06-02 20:00:00 21.2 11 Oeste 33 Oeste 0 -- -- 27
2019-06-02 19:00:00 21.9 19 Oeste 33 Oeste 0 -- -- 22
2019-06-02 18:00:00 22.6 22 Oeste 33 Oeste 0 -- -- 22
2019-06-02 17:00:00 23.6 19 Oeste 36 Oeste 0 -- -- 22
2019-06-02 16:00:00 23.4 23 Oeste 36 Sudoeste 0 -- -- 23
2019-06-02 15:00:00 23.5 20 Oeste 37 Sudoeste 0 -- -- 25
2019-06-02 14:00:00 23.3 19 Oeste 33 Oeste 0 -- -- 26
2019-06-02 13:00:00 22.4 22 Sudoeste 32 Sudoeste 0 -- -- 26
2019-06-02 12:00:00 22.1 16 Sudoeste 24 Sudoeste 0 -- -- 26
2019-06-02 11:00:00 21.4 13 Oeste 26 Oeste 0 -- -- 33
2019-06-02 10:00:00 19.8 17 Noroeste 25 Oeste 0 -- -- 36
2019-06-02 09:00:00 18.6 12 Noroeste 27 Noroeste 0 -- -- 41
2019-06-02 08:00:00 17.5 12 Noroeste 21 Noroeste 0 -- -- 44
2019-06-02 07:00:00 15.6 10 Noroeste 14 Oeste 0 -- -- 53
2019-06-02 06:00:00 15.3 8 Noroeste 21 Oeste 0 -- -- 56
2019-06-02 05:00:00 15.1 12 Noroeste 17 Noroeste 0 -- -- 52
2019-06-02 04:00:00 14.5 9 Noroeste 20 Noroeste 0 -- -- 35
2019-06-02 03:00:00 15.5 16 Noroeste 22 Noroeste 0 -- -- 32
2019-06-02 02:00:00 15.7 13 Noroeste 23 Noroeste 0 -- -- 31
2019-06-02 01:00:00 16.4 16 Noroeste 25 Noroeste 0 -- -- 30
2019-06-02 00:00:00 16.5 17 Noroeste 23 Noroeste 0 -- -- 29
2019-06-01 23:00:00 16.3 13 Noroeste 21 Noroeste 0 -- -- 31
2019-06-01 22:00:00 16.7 14 Noroeste 21 Noroeste 0 -- -- 32
2019-06-01 21:00:00 18.2 13 Noroeste 28 Oeste 0 -- -- 31
2019-06-01 20:00:00 20.5 21 Sudoeste 30 Oeste 0 -- -- 31
2019-06-01 19:00:00 22.4 17 Sudoeste 26 Sudoeste 0 -- -- 30
2019-06-01 18:00:00 24 14 Sudoeste 24 Sudoeste 0 -- -- 26
2019-06-01 17:00:00 24.1 14 Sudoeste 28 Sur 0 -- -- 31
2019-06-01 16:00:00 24.1 18 Oeste 30 Sudoeste 0 -- -- 32
2019-06-01 15:00:00 25.1 15 Sudoeste 31 Sudoeste 0 -- -- 33
2019-06-01 14:00:00 24.3 13 Sudoeste 30 Oeste 0 -- -- 37
2019-06-01 13:00:00 24.6 13 Sudoeste 24 Sudoeste 0 -- -- 30
2019-06-01 12:00:00 24.2 7 Sudoeste 18 Sudoeste 0 -- -- 28
2019-06-01 11:00:00 23.6 8 Sudeste 18 Sudeste 0 -- -- 32
2019-06-01 10:00:00 22.7 7 Sudeste 14 Sudeste 0 -- -- 33
2019-06-01 09:00:00 20 9 Noroeste 17 Noroeste 0 -- -- 37
2019-06-01 08:00:00 17.2 5 Noroeste 9 Noroeste 0 -- -- 46
2019-06-01 07:00:00 13 6 Noroeste 11 Noroeste 0 -- -- 58
2019-06-01 06:00:00 13.2 8 Noroeste 11 Noroeste 0 -- -- 55
2019-06-01 05:00:00 13.3 8 Noroeste 10 Noroeste 0 -- -- 56
2019-06-01 04:00:00 13.2 8 Noroeste 12 Noroeste 0 -- -- 58
2019-06-01 03:00:00 12.8 7 Noroeste 10 Noroeste 0 -- -- 64
2019-06-01 02:00:00 13.1 7 Noroeste 13 Noroeste 0 -- -- 62
2019-06-01 01:00:00 13.3 5 Noroeste 11 Noroeste 0 -- -- 62
2019-06-01 00:00:00 13.5 6 Noroeste 10 Noroeste 0 -- -- 61
2019-05-31 23:00:00 13.8 8 Noroeste 16 Noroeste 0 -- -- 58
2019-05-31 22:00:00 15.1 13 Noroeste 20 Oeste 0 -- -- 51
2019-05-31 21:00:00 17 14 Noroeste 24 Oeste 0 -- -- 47
2019-05-31 20:00:00 19.2 18 Oeste 33 Sudoeste 0 -- -- 42
2019-05-31 19:00:00 20.9 16 Oeste 30 Sudoeste 0 -- -- 38
2019-05-31 18:00:00 21.3 21 Sudoeste 31 Sudoeste 0 -- -- 36
2019-05-31 17:00:00 21.8 19 Sudoeste 37 Sudoeste 0 -- -- 37
2019-05-31 16:00:00 21.8 23 Sudoeste 37 Oeste 0 -- -- 36
2019-05-31 15:00:00 22.2 22 Sudoeste 38 Oeste 0 -- -- 32
2019-05-31 14:00:00 22 19 Sudoeste 33 Oeste 0 -- -- 32
2019-05-31 13:00:00 21.9 16 Sudoeste 34 Oeste 0 -- -- 30
2019-05-31 12:00:00 21.2 13 Sudoeste 26 Sur 0 -- -- 31
2019-05-31 11:00:00 21 9 Sudoeste 23 Oeste 0 -- -- 31
2019-05-31 10:00:00 19.5 12 Sudoeste 21 Sudoeste 0 -- -- 32
2019-05-31 09:00:00 18.1 13 Oeste 22 Sudoeste 0 -- -- 36
2019-05-31 08:00:00 14.7 8 Noroeste 13 Noroeste 0 -- -- 50
2019-05-31 07:00:00 9.7 8 Noroeste 13 Noroeste 0 -- -- 65
2019-05-31 06:00:00 9.5 9 Noroeste 13 Noroeste 0 -- -- 64
2019-05-31 05:00:00 8.9 8 Noroeste 13 Noroeste 0 -- -- 69
2019-05-31 04:00:00 8.3 11 Noroeste 13 Noroeste 0 -- -- 72
2019-05-31 03:00:00 9.4 8 Noroeste 12 Noroeste 0 -- -- 66
2019-05-31 02:00:00 10 10 Noroeste 13 Noroeste 0 -- -- 67
2019-05-31 01:00:00 11.2 10 Noroeste 12 Noroeste 0 -- -- 62
2019-05-31 00:00:00 11.1 10 Noroeste 13 Noroeste 0 -- -- 65
2019-05-30 23:00:00 11.7 9 Noroeste 12 Noroeste 0 -- -- 67
2019-05-30 22:00:00 13 5 Noroeste 10 Sudeste 0 -- -- 71
2019-05-30 21:00:00 15.8 8 Sur 15 Sudeste 0 -- -- 62
2019-05-30 20:00:00 19.1 10 Sur 27 Sur 0 -- -- 48
2019-05-30 19:00:00 20.5 11 Sur 27 Sur 0 -- -- 48
2019-05-30 18:00:00 21.6 14 Sur 25 Sur 0 -- -- 41
2019-05-30 17:00:00 22.7 9 Sur 26 Sur 0 -- -- 38
2019-05-30 16:00:00 21.4 11 Sur 27 Sur 0 -- -- 40
2019-05-30 15:00:00 20.6 15 Sur 25 Sudoeste 0 -- -- 45
2019-05-30 14:00:00 20.6 11 Sur 27 Sudeste 0 -- -- 49
2019-05-30 13:00:00 20 13 Sudeste 23 Sudeste 0 -- -- 48
2019-05-30 12:00:00 19.4 10 Sudeste 22 Sudeste 0 -- -- 48
2019-05-30 11:00:00 18.8 10 Sudeste 17 Sudeste 0 -- -- 51
2019-05-30 10:00:00 17.8 7 Oeste 13 Noroeste 0 -- -- 43
2019-05-30 09:00:00 17.7 2 Noroeste 8 Noroeste 0 -- -- 45
2019-05-30 08:00:00 13.5 4 Oeste 9 Noroeste 0 -- -- 59
2019-05-30 07:00:00 9.9 5 Noroeste 12 Noroeste 0 -- -- 76
2019-05-30 06:00:00 7.8 4 Noroeste 12 Noroeste 0 -- -- 87
2019-05-30 05:00:00 6.6 6 Noroeste 11 Noroeste 0 -- -- 85
2019-05-30 04:00:00 7.2 9 Noroeste 11 Noroeste 0 -- -- 84
2019-05-30 03:00:00 7.6 8 Noroeste 11 Noroeste 0 -- -- 84
2019-05-30 02:00:00 8.3 8 Noroeste 10 Noroeste 0 -- -- 83
2019-05-30 01:00:00 9.1 5 Noroeste 8 Noroeste 0 -- -- 85
2019-05-30 00:00:00 10.8 0 Calma 12 Sur 0 -- -- 82
2019-05-29 23:00:00 12.5 7 Sur 15 Sur 0 -- -- 80
2019-05-29 22:00:00 12.4 5 Sur 18 Sudeste 0 -- -- 79
2019-05-29 21:00:00 13.9 10 Sudeste 16 Sudeste 0 -- -- 67
2019-05-29 20:00:00 17.3 8 Sudeste 22 Sudeste 0 -- -- 51
2019-05-29 19:00:00 18 15 Sudeste 24 Sur 0 -- -- 48
2019-05-29 18:00:00 19.8 15 Sur 30 Sur 0 -- -- 43
2019-05-29 17:00:00 21.6 12 Sudoeste 27 Oeste 0 -- -- 35
2019-05-29 16:00:00 21.6 8 Noroeste 26 Noroeste 0 -- -- 21
2019-05-29 15:00:00 20.2 8 Norte 28 Noroeste 0 -- -- 21
2019-05-29 14:00:00 18.7 19 Oeste 35 Noroeste 0 -- -- 27
2019-05-29 13:00:00 17.7 15 Noroeste 28 Noroeste 0 -- -- 27
2019-05-29 12:00:00 16.9 18 Noroeste 35 Oeste 0 -- -- 26
2019-05-29 11:00:00 16.6 11 Noroeste 26 Noroeste 0 -- -- 32
2019-05-29 10:00:00 14.5 16 Noroeste 25 Noroeste 0 -- -- 45
2019-05-29 09:00:00 15.2 9 Norte 24 Norte 0 -- -- 36
2019-05-29 08:00:00 11.7 8 Oeste 16 Oeste 0 -- -- 50
2019-05-29 07:00:00 8.8 5 Oeste 12 Norte 0 -- -- 62
2019-05-29 06:00:00 8.1 4 Oeste 14 Sudoeste 0 -- -- 65
2019-05-29 05:00:00 7.6 5 Noroeste 13 Oeste 0 -- -- 70
2019-05-29 04:00:00 7.3 3 Oeste 10 Noroeste 0 -- -- 74
2019-05-29 03:00:00 9.1 6 Noroeste 13 Oeste 0 -- -- 63
2019-05-29 02:00:00 8.3 6 Noroeste 17 Noroeste 0 -- -- 73
2019-05-29 01:00:00 10.1 6 Noroeste 10 Oeste 0 -- -- 86
2019-05-29 00:00:00 11.4 0 Calma 8 Sudeste 0 -- -- 86
2019-05-28 23:00:00 12 5 Este 14 Sudeste 0 -- -- 86
2019-05-28 22:00:00 12.3 4 Sudeste 13 Sudeste 0 -- -- 83
2019-05-28 21:00:00 12.8 8 Sudeste 15 Sudeste 0 -- -- 80
2019-05-28 20:00:00 14.7 11 Sudeste 24 Sudeste 0 -- -- 73
2019-05-28 19:00:00 15.3 17 Sudeste 27 Sudeste 0 -- -- 70
2019-05-28 18:00:00 17.7 17 Sudeste 26 Sudeste 0 -- -- 57
2019-05-28 17:00:00 18.4 10 Sudeste 21 Sudeste 0 -- -- 49
2019-05-28 16:00:00 17.5 11 Sudeste 32 Sudeste 0 -- -- 51
2019-05-28 15:00:00 19 14 Oeste 27 Oeste 0 -- -- 40
2019-05-28 14:00:00 18.7 17 Noroeste 30 Noroeste 0 -- -- 43
2019-05-28 13:00:00 17.5 18 Oeste 31 Noroeste 0 -- -- 43
2019-05-28 12:00:00 16.7 13 Noroeste 26 Noroeste 0 -- -- 46
2019-05-28 11:00:00 16.1 9 Noroeste 27 Noroeste 0 -- -- 51
2019-05-28 10:00:00 14 15 Noroeste 28 Noroeste 0 -- -- 56
2019-05-28 09:00:00 13.1 8 Noroeste 21 Noroeste 0 -- -- 59
2019-05-28 08:00:00 11 10 Noroeste 22 Noroeste 0 -- -- 65
2019-05-28 07:00:00 10 7 Oeste 22 Oeste 0 -- -- 69
2019-05-28 06:00:00 10.1 12 Oeste 22 Noroeste 0 -- -- 68
2019-05-28 05:00:00 10.8 9 Noroeste 22 Noroeste 0 -- -- 72
2019-05-28 04:00:00 11.6 11 Noroeste 19 Oeste 0 -- -- 79
2019-05-28 03:00:00 10.5 4 Noroeste 10 Noroeste 0 -- -- 84
2019-05-28 02:00:00 10.9 3 Noroeste 4 Oeste 0 -- -- 83
2019-05-28 01:00:00 12.2 0 Calma 5 Oeste 0 -- -- 80
2019-05-28 00:00:00 13.4 4 Este 6 Este 0 -- -- 76